Time;durP1;ratioP1;P1;durP2;ratioP2;P2;SDS_P1;SDS_P2;PMS_P1;PMS_P2;Temp;Humidity;BMP_temperature;BMP_pressure;BME280_temperature;BME280_humidity;BME280_pressure;Samples;Min_cycle;Max_cycle;Signal;HPM_P1;HPM_P2
2023/04/13 00:00:12;;;;;;;3.05;0.73;;;;;;;;;;6276696;22;20010;-75
2023/04/13 00:02:37;;;;;;;1.08;0.47;;;;;;;;;;6275258;22;20089;-76
2023/04/13 00:05:08;;;;;;;1.77;0.50;;;;;;;;;;6275926;22;20003;-75
2023/04/13 00:07:37;;;;;;;2.00;0.50;;;;;;;;;;6276675;22;20023;-75
2023/04/13 00:10:07;;;;;;;1.13;0.50;;;;;;;;;;6276152;22;20006;-75
2023/04/13 00:12:33;;;;;;;0.75;0.47;;;;;;;;;;6275739;22;20058;-75
2023/04/13 00:14:59;;;;;;;2.30;0.70;;;;;;;;;;6276390;22;20007;-76
2023/04/13 00:17:25;;;;;;;1.40;0.52;;;;;;;;;;6278067;22;20380;-75
2023/04/13 00:19:52;;;;;;;1.63;0.50;;;;;;;;;;6278201;22;20413;-75
2023/04/13 00:22:18;;;;;;;0.88;0.50;;;;;;;;;;6276589;22;20106;-75
2023/04/13 00:24:44;;;;;;;1.02;0.50;;;;;;;;;;6276785;22;20008;-75
2023/04/13 00:27:10;;;;;;;1.50;0.50;;;;;;;;;;6276004;22;20000;-75
2023/04/13 00:29:36;;;;;;;1.30;0.50;;;;;;;;;;6278229;22;20038;-75
2023/04/13 00:32:03;;;;;;;1.55;0.60;;;;;;;;;;6275161;22;20326;-76
2023/04/13 00:34:28;;;;;;;1.23;0.60;;;;;;;;;;6275121;22;20003;-75
2023/04/13 00:36:54;;;;;;;1.70;0.43;;;;;;;;;;6276410;22;20011;-75
2023/04/13 00:39:22;;;;;;;2.42;0.50;;;;;;;;;;6278226;22;20031;-75
2023/04/13 00:41:49;;;;;;;1.63;0.65;;;;;;;;;;6277708;22;19999;-77
2023/04/13 00:44:18;;;;;;;1.42;0.57;;;;;;;;;;6275991;22;20447;-75
2023/04/13 00:46:45;;;;;;;1.40;0.50;;;;;;;;;;6276696;22;20034;-75
2023/04/13 00:49:11;;;;;;;1.27;0.63;;;;;;;;;;6276182;22;20007;-75
2023/04/13 00:51:37;;;;;;;1.45;0.47;;;;;;;;;;6276124;22;20065;-75
2023/04/13 00:54:03;;;;;;;1.45;0.70;;;;;;;;;;6276891;22;20003;-75
2023/04/13 00:56:29;;;;;;;2.38;0.60;;;;;;;;;;6276013;22;20380;-74
2023/04/13 00:58:55;;;;;;;1.98;0.70;;;;;;;;;;6277413;22;20434;-75
2023/04/13 01:01:20;;;;;;;0.70;0.50;;;;;;;;;;6277477;22;20004;-75
2023/04/13 01:03:47;;;;;;;1.05;0.55;;;;;;;;;;6277148;22;20011;-76
2023/04/13 01:06:26;;;;;;;2.83;0.60;;;;;;;;;;6274126;22;20065;-75
2023/04/13 01:09:00;;;;;;;2.15;0.50;;;;;;;;;;6273023;22;20445;-75
2023/04/13 01:11:31;;;;;;;2.33;0.63;;;;;;;;;;6276457;22;20007;-76
2023/04/13 01:14:15;;;;;;;2.28;0.47;;;;;;;;;;6276688;22;20034;-75
2023/04/13 01:16:46;;;;;;;1.30;0.50;;;;;;;;;;6278613;22;20000;-75
2023/04/13 01:19:27;;;;;;;2.60;0.47;;;;;;;;;;6277418;22;20334;-75
2023/04/13 01:21:53;;;;;;;2.88;0.77;;;;;;;;;;6276814;22;20493;-75
2023/04/13 01:24:45;;;;;;;2.90;0.45;;;;;;;;;;6276882;22;20007;-75
2023/04/13 01:27:19;;;;;;;1.50;0.50;;;;;;;;;;6276300;22;20083;-75
2023/04/13 01:29:45;;;;;;;1.10;0.50;;;;;;;;;;6277381;22;20438;-77
2023/04/13 01:32:12;;;;;;;1.65;0.63;;;;;;;;;;6276124;22;20007;-77
2023/04/13 01:34:38;;;;;;;0.57;0.30;;;;;;;;;;6274806;22;20455;-75
2023/04/13 01:37:05;;;;;;;2.35;0.50;;;;;;;;;;6273454;22;20011;-75
2023/04/13 01:39:32;;;;;;;2.22;0.50;;;;;;;;;;6274189;22;20422;-75
2023/04/13 01:41:57;;;;;;;1.42;0.40;;;;;;;;;;6275465;22;19999;-77
2023/04/13 01:44:23;;;;;;;2.38;0.55;;;;;;;;;;6275280;22;20479;-75
2023/04/13 01:46:53;;;;;;;3.80;0.50;;;;;;;;;;6275406;22;20332;-75
2023/04/13 01:49:20;;;;;;;2.90;0.80;;;;;;;;;;6274637;22;20010;-76
2023/04/13 01:51:49;;;;;;;1.30;0.60;;;;;;;;;;6273888;22;20014;-76
2023/04/13 01:54:19;;;;;;;2.22;0.60;;;;;;;;;;6271797;22;20422;-75
2023/04/13 01:56:45;;;;;;;1.27;0.47;;;;;;;;;;6274477;22;20077;-75
2023/04/13 01:59:11;;;;;;;3.47;0.63;;;;;;;;;;6275042;22;20078;-76
2023/04/13 02:01:37;;;;;;;2.42;0.47;;;;;;;;;;6273651;22;20395;-75
2023/04/13 02:04:04;;;;;;;2.15;0.60;;;;;;;;;;6272909;22;20036;-75
2023/04/13 02:06:29;;;;;;;3.72;0.68;;;;;;;;;;6276763;22;20007;-75
2023/04/13 02:08:54;;;;;;;1.80;0.55;;;;;;;;;;6273573;22;20008;-76
2023/04/13 02:11:20;;;;;;;2.85;0.70;;;;;;;;;;6276655;22;20074;-75
2023/04/13 02:13:46;;;;;;;1.70;0.60;;;;;;;;;;6272116;22;20004;-76
2023/04/13 02:16:12;;;;;;;2.65;0.63;;;;;;;;;;6276104;22;20380;-75
2023/04/13 02:18:37;;;;;;;3.10;0.73;;;;;;;;;;6275685;22;20079;-75
2023/04/13 02:21:08;;;;;;;1.85;0.60;;;;;;;;;;6275343;22;20011;-75
2023/04/13 02:23:38;;;;;;;2.88;0.75;;;;;;;;;;6276488;22;20003;-75
2023/04/13 02:26:06;;;;;;;2.85;0.60;;;;;;;;;;6275257;22;20003;-75
2023/04/13 02:28:32;;;;;;;1.23;0.50;;;;;;;;;;6273893;22;20003;-75
2023/04/13 02:31:02;;;;;;;0.55;0.40;;;;;;;;;;6276085;22;19999;-75
2023/04/13 02:33:30;;;;;;;1.98;0.57;;;;;;;;;;6274641;22;20003;-76
2023/04/13 02:36:01;;;;;;;3.72;0.60;;;;;;;;;;6272220;22;20050;-76
2023/04/13 02:38:26;;;;;;;1.13;0.50;;;;;;;;;;6275261;22;19999;-75
2023/04/13 02:40:57;;;;;;;0.98;0.52;;;;;;;;;;6274644;22;20015;-75
2023/04/13 02:43:25;;;;;;;1.45;0.55;;;;;;;;;;6276314;22;20063;-75
2023/04/13 02:45:51;;;;;;;3.53;1.00;;;;;;;;;;6274867;22;20379;-76
2023/04/13 02:48:16;;;;;;;2.03;0.70;;;;;;;;;;6274997;22;20031;-75
2023/04/13 02:50:42;;;;;;;2.35;0.75;;;;;;;;;;6276656;22;20008;-75
2023/04/13 02:53:07;;;;;;;2.40;0.80;;;;;;;;;;6274446;22;20007;-75
2023/04/13 02:55:33;;;;;;;2.17;0.90;;;;;;;;;;6275859;22;20011;-75
2023/04/13 02:57:58;;;;;;;1.88;0.70;;;;;;;;;;6275526;22;20000;-75
2023/04/13 03:00:24;;;;;;;2.35;0.85;;;;;;;;;;6249197;22;20004;-75
2023/04/13 03:02:50;;;;;;;2.00;0.80;;;;;;;;;;6274752;22;19999;-75
2023/04/13 03:05:15;;;;;;;4.30;0.90;;;;;;;;;;6275040;22;20054;-76
2023/04/13 03:07:41;;;;;;;1.65;0.65;;;;;;;;;;6277640;22;20322;-75
2023/04/13 03:10:07;;;;;;;2.70;1.00;;;;;;;;;;6276608;22;20008;-75
2023/04/13 03:12:33;;;;;;;1.63;0.85;;;;;;;;;;6250082;22;20014;-75
2023/04/13 03:15:03;;;;;;;1.77;0.85;;;;;;;;;;6274888;22;20430;-75
2023/04/13 03:17:29;;;;;;;2.33;1.00;;;;;;;;;;6277628;22;20126;-74
2023/04/13 03:19:58;;;;;;;2.72;0.90;;;;;;;;;;6277333;22;20051;-76
2023/04/13 03:22:24;;;;;;;1.00;0.70;;;;;;;;;;6277981;22;20008;-75
2023/04/13 03:24:50;;;;;;;2.85;0.82;;;;;;;;;;6274717;22;20030;-75
2023/04/13 03:27:16;;;;;;;2.58;0.80;;;;;;;;;;6275513;22;20003;-75
2023/04/13 03:29:41;;;;;;;2.58;0.70;;;;;;;;;;6277783;22;20008;-75
2023/04/13 03:32:07;;;;;;;3.10;0.70;;;;;;;;;;6275597;22;20007;-75
2023/04/13 03:34:32;;;;;;;2.60;0.77;;;;;;;;;;6276387;22;20004;-76
2023/04/13 03:36:57;;;;;;;4.10;0.73;;;;;;;;;;6275608;22;20174;-75
2023/04/13 03:39:23;;;;;;;1.25;0.60;;;;;;;;;;6274393;22;20003;-76
2023/04/13 03:41:48;;;;;;;6.03;0.90;;;;;;;;;;6277651;22;20441;-75
2023/04/13 03:44:13;;;;;;;2.05;0.60;;;;;;;;;;6274892;22;20004;-76
2023/04/13 03:46:40;;;;;;;1.35;0.50;;;;;;;;;;6275764;22;20007;-75
2023/04/13 03:49:07;;;;;;;1.63;0.60;;;;;;;;;;6275912;22;20446;-75
2023/04/13 03:51:33;;;;;;;1.65;0.60;;;;;;;;;;6275985;22;20060;-76
2023/04/13 03:53:59;;;;;;;4.20;0.73;;;;;;;;;;6273367;22;20079;-76
2023/04/13 03:56:25;;;;;;;2.75;0.70;;;;;;;;;;6276914;22;20101;-75
2023/04/13 03:58:51;;;;;;;2.10;0.70;;;;;;;;;;6277686;22;20015;-75
2023/04/13 04:01:16;;;;;;;2.33;0.70;;;;;;;;;;6277519;22;20349;-74
2023/04/13 04:03:41;;;;;;;2.13;0.80;;;;;;;;;;6276901;22;20433;-76
2023/04/13 04:06:07;;;;;;;3.33;1.20;;;;;;;;;;6277437;22;20035;-75
2023/04/13 04:08:33;;;;;;;1.60;1.00;;;;;;;;;;6279187;22;20023;-75
2023/04/13 04:10:58;;;;;;;2.17;1.10;;;;;;;;;;6277173;22;20004;-75
2023/04/13 04:13:24;;;;;;;3.85;1.15;;;;;;;;;;6278483;22;20020;-75
2023/04/13 04:15:49;;;;;;;5.03;1.65;;;;;;;;;;6278412;22;20031;-74
2023/04/13 04:18:15;;;;;;;2.42;1.33;;;;;;;;;;6276172;22;20010;-74
2023/04/13 04:20:40;;;;;;;3.67;1.65;;;;;;;;;;6275654;22;20066;-76
2023/04/13 04:23:09;;;;;;;5.25;2.05;;;;;;;;;;6275616;22;20008;-75
2023/04/13 04:25:36;;;;;;;7.03;2.00;;;;;;;;;;6275583;22;19999;-75
2023/04/13 04:28:03;;;;;;;4.13;1.80;;;;;;;;;;6277230;22;20487;-75
2023/04/13 04:30:28;;;;;;;4.72;2.20;;;;;;;;;;6276789;22;20088;-75
2023/04/13 04:32:55;;;;;;;5.72;2.10;;;;;;;;;;6276524;22;20007;-75
2023/04/13 04:35:20;;;;;;;4.15;2.10;;;;;;;;;;6274192;22;20012;-75
2023/04/13 04:37:48;;;;;;;3.58;1.88;;;;;;;;;;6271865;22;20449;-76
2023/04/13 04:40:14;;;;;;;3.63;2.20;;;;;;;;;;6272764;22;20014;-75
2023/04/13 04:42:41;;;;;;;4.93;2.20;;;;;;;;;;6276584;22;20070;-75
2023/04/13 04:45:07;;;;;;;5.00;2.22;;;;;;;;;;6273059;22;20011;-76
2023/04/13 04:47:40;;;;;;;8.82;2.92;;;;;;;;;;6276093;22;20003;-75
2023/04/13 04:50:16;;;;;;;5.05;2.55;;;;;;;;;;6276256;22;20011;-76
2023/04/13 04:52:42;;;;;;;7.03;2.50;;;;;;;;;;6278440;22;20008;-76
2023/04/13 04:55:08;;;;;;;9.85;3.20;;;;;;;;;;6278118;22;20057;-75
2023/04/13 04:57:34;;;;;;;7.07;2.60;;;;;;;;;;6275102;22;20081;-75
2023/04/13 05:00:00;;;;;;;6.95;2.60;;;;;;;;;;6276764;22;20432;-75
2023/04/13 05:02:26;;;;;;;7.07;2.65;;;;;;;;;;6272604;22;20046;-75
2023/04/13 05:04:52;;;;;;;6.93;2.60;;;;;;;;;;6273693;22;20118;-75
2023/04/13 05:07:17;;;;;;;5.82;2.83;;;;;;;;;;6273681;22;20057;-75
2023/04/13 05:09:44;;;;;;;7.38;2.38;;;;;;;;;;6279957;22;20026;-75
2023/04/13 05:12:10;;;;;;;7.50;2.60;;;;;;;;;;6278072;22;20057;-75
2023/04/13 05:14:35;;;;;;;5.13;2.47;;;;;;;;;;6277296;22;20424;-75
2023/04/13 05:17:01;;;;;;;7.40;2.70;;;;;;;;;;6278760;22;20330;-75
2023/04/13 05:19:26;;;;;;;5.57;2.70;;;;;;;;;;6275788;22;20423;-75
2023/04/13 05:21:52;;;;;;;7.93;2.20;;;;;;;;;;6274239;22;20035;-75
2023/04/13 05:24:17;;;;;;;5.60;2.22;;;;;;;;;;6277367;22;20011;-74
2023/04/13 05:26:42;;;;;;;5.72;2.17;;;;;;;;;;6275641;22;20054;-75
2023/04/13 05:29:08;;;;;;;4.47;2.20;;;;;;;;;;6275212;22;20015;-75
2023/04/13 05:31:34;;;;;;;5.88;2.30;;;;;;;;;;6277033;22;20004;-75
2023/04/13 05:34:00;;;;;;;4.53;2.03;;;;;;;;;;6251628;22;20349;-75
2023/04/13 05:36:27;;;;;;;5.82;2.10;;;;;;;;;;6276526;22;20003;-75
2023/04/13 05:38:53;;;;;;;9.05;2.13;;;;;;;;;;6278598;22;20003;-75
2023/04/13 05:41:18;;;;;;;5.45;2.10;;;;;;;;;;6276062;22;20007;-75
2023/04/13 05:43:44;;;;;;;4.50;2.40;;;;;;;;;;6277003;22;20008;-76
2023/04/13 05:46:10;;;;;;;6.85;2.67;;;;;;;;;;6276897;22;20033;-75
2023/04/13 05:48:35;;;;;;;6.60;2.58;;;;;;;;;;6275439;22;20011;-75
2023/04/13 05:51:01;;;;;;;5.68;2.65;;;;;;;;;;6272426;22;20197;-76
2023/04/13 05:53:26;;;;;;;5.95;2.55;;;;;;;;;;6273288;22;20427;-75
2023/04/13 05:55:53;;;;;;;5.07;2.70;;;;;;;;;;6271056;22;20442;-75
2023/04/13 05:58:19;;;;;;;8.45;2.90;;;;;;;;;;6270927;22;20429;-74
2023/04/13 06:00:44;;;;;;;7.55;3.25;;;;;;;;;;6272074;22;20014;-74
2023/04/13 06:03:09;;;;;;;9.20;2.90;;;;;;;;;;6269416;22;20012;-76
2023/04/13 06:05:36;;;;;;;8.18;3.38;;;;;;;;;;6270831;22;20011;-75
2023/04/13 06:08:02;;;;;;;7.55;3.30;;;;;;;;;;6271235;22;20056;-76
2023/04/13 06:10:27;;;;;;;6.53;3.10;;;;;;;;;;6272408;22;20086;-76
2023/04/13 06:12:53;;;;;;;8.32;3.30;;;;;;;;;;6272849;22;20000;-75
2023/04/13 06:15:19;;;;;;;7.32;3.33;;;;;;;;;;6274638;22;20031;-75
2023/04/13 06:17:45;;;;;;;6.55;2.90;;;;;;;;;;6273289;22;20015;-76
2023/04/13 06:20:10;;;;;;;5.57;2.65;;;;;;;;;;6270576;22;20003;-75
2023/04/13 06:22:36;;;;;;;5.35;2.50;;;;;;;;;;6270869;22;20407;-75
2023/04/13 06:25:01;;;;;;;4.95;2.42;;;;;;;;;;6274156;22;20052;-74
2023/04/13 06:27:28;;;;;;;4.80;2.33;;;;;;;;;;6271586;22;20009;-76
2023/04/13 06:29:54;;;;;;;6.18;2.60;;;;;;;;;;6270958;22;20014;-76
2023/04/13 06:32:20;;;;;;;6.30;2.30;;;;;;;;;;6273110;22;20014;-75
2023/04/13 06:34:45;;;;;;;5.07;2.08;;;;;;;;;;6273993;22;19999;-76
2023/04/13 06:37:10;;;;;;;4.80;1.90;;;;;;;;;;6275779;22;20007;-75
2023/04/13 06:39:36;;;;;;;5.00;1.95;;;;;;;;;;6276125;22;20014;-75
2023/04/13 06:42:05;;;;;;;3.65;1.80;;;;;;;;;;6275677;22;20034;-75
2023/04/13 06:44:30;;;;;;;4.32;1.73;;;;;;;;;;6274819;22;20004;-76
2023/04/13 06:46:56;;;;;;;5.53;1.98;;;;;;;;;;6274720;22;19995;-74
2023/04/13 06:49:21;;;;;;;4.72;1.83;;;;;;;;;;6276214;22;20003;-74
2023/04/13 06:51:47;;;;;;;3.80;1.83;;;;;;;;;;6271971;22;20315;-75
2023/04/13 06:54:13;;;;;;;6.47;2.00;;;;;;;;;;6274928;22;20008;-74
2023/04/13 06:56:38;;;;;;;4.35;1.48;;;;;;;;;;6273746;22;20007;-75
2023/04/13 06:59:04;;;;;;;4.63;1.92;;;;;;;;;;6275181;22;20008;-76
2023/04/13 07:01:30;;;;;;;5.88;2.03;;;;;;;;;;6274287;22;20517;-74
2023/04/13 07:03:55;;;;;;;5.90;2.00;;;;;;;;;;6275270;22;20058;-76
2023/04/13 07:06:21;;;;;;;5.63;2.78;;;;;;;;;;6277321;22;20075;-75
2023/04/13 07:08:47;;;;;;;7.10;2.67;;;;;;;;;;6272687;22;20031;-76
2023/04/13 07:11:13;;;;;;;5.28;2.35;;;;;;;;;;6277122;22;19999;-75
2023/04/13 07:13:39;;;;;;;5.68;2.53;;;;;;;;;;6275876;22;20035;-75
2023/04/13 07:16:07;;;;;;;7.20;2.42;;;;;;;;;;6249584;22;20460;-75
2023/04/13 07:18:32;;;;;;;6.45;2.63;;;;;;;;;;6277252;22;20015;-75
2023/04/13 07:20:58;;;;;;;5.47;2.45;;;;;;;;;;6277436;22;19999;-75
2023/04/13 07:23:23;;;;;;;7.00;3.15;;;;;;;;;;6276930;22;20012;-75
2023/04/13 07:25:48;;;;;;;7.80;3.17;;;;;;;;;;6278134;22;20006;-75
2023/04/13 07:28:14;;;;;;;11.43;3.17;;;;;;;;;;6276008;22;20388;-75
2023/04/13 07:30:46;;;;;;;9.18;3.10;;;;;;;;;;6276065;22;20381;-75
2023/04/13 07:33:11;;;;;;;6.53;2.80;;;;;;;;;;6275929;22;20000;-75
2023/04/13 07:35:37;;;;;;;10.75;2.97;;;;;;;;;;6276107;22;20011;-75
2023/04/13 07:38:03;;;;;;;8.05;2.80;;;;;;;;;;6276578;22;20073;-76
2023/04/13 07:40:28;;;;;;;4.43;2.40;;;;;;;;;;6275326;22;20099;-75
2023/04/13 07:42:53;;;;;;;6.82;2.08;;;;;;;;;;6275154;22;20042;-76
2023/04/13 07:45:19;;;;;;;6.65;2.30;;;;;;;;;;6274507;22;20003;-75
2023/04/13 07:47:45;;;;;;;6.53;2.28;;;;;;;;;;6277704;22;20004;-75
2023/04/13 07:50:12;;;;;;;6.05;1.98;;;;;;;;;;6277426;22;20337;-75
2023/04/13 07:52:37;;;;;;;5.22;1.70;;;;;;;;;;6274491;22;20425;-75
2023/04/13 07:55:03;;;;;;;9.70;2.42;;;;;;;;;;6274788;22;20468;-75
2023/04/13 07:57:29;;;;;;;6.78;1.70;;;;;;;;;;6275068;22;20022;-75
2023/04/13 07:59:54;;;;;;;5.60;1.73;;;;;;;;;;6276320;22;20086;-75
2023/04/13 08:02:21;;;;;;;5.70;1.60;;;;;;;;;;6274964;22;20003;-75
2023/04/13 08:04:47;;;;;;;6.38;1.65;;;;;;;;;;6276802;22;19999;-76
2023/04/13 08:07:12;;;;;;;4.60;1.40;;;;;;;;;;6277942;22;19996;-76
2023/04/13 08:09:39;;;;;;;3.53;1.40;;;;;;;;;;6277579;22;20008;-75
2023/04/13 08:12:05;;;;;;;5.95;1.48;;;;;;;;;;6278119;22;20047;-75
2023/04/13 08:14:31;;;;;;;6.55;1.50;;;;;;;;;;6279344;22;20003;-75
2023/04/13 08:16:56;;;;;;;3.67;1.33;;;;;;;;;;6278249;22;20035;-74
2023/04/13 08:19:22;;;;;;;6.15;1.30;;;;;;;;;;6279240;22;20003;-75
2023/04/13 08:21:47;;;;;;;7.28;1.63;;;;;;;;;;6278018;22;20007;-75
2023/04/13 08:24:13;;;;;;;5.13;1.38;;;;;;;;;;6279115;22;20000;-76
2023/04/13 08:26:38;;;;;;;5.90;1.42;;;;;;;;;;6277888;22;19999;-74
2023/04/13 08:29:04;;;;;;;4.32;1.05;;;;;;;;;;6278525;22;20038;-74
2023/04/13 08:31:31;;;;;;;4.32;1.35;;;;;;;;;;6277121;22;20004;-75
2023/04/13 08:33:56;;;;;;;4.82;1.15;;;;;;;;;;6275596;22;20531;-75
2023/04/13 08:36:22;;;;;;;5.88;1.30;;;;;;;;;;6276402;22;20003;-75
2023/04/13 08:38:47;;;;;;;3.33;0.68;;;;;;;;;;6276710;22;20014;-75
2023/04/13 08:41:13;;;;;;;3.38;0.88;;;;;;;;;;6275255;22;20007;-75
2023/04/13 08:43:39;;;;;;;3.20;0.82;;;;;;;;;;6278059;22;20006;-75
2023/04/13 08:46:05;;;;;;;2.22;0.80;;;;;;;;;;6277088;22;20426;-75
2023/04/13 08:48:38;;;;;;;5.57;1.15;;;;;;;;;;6277823;22;20422;-75
2023/04/13 08:51:04;;;;;;;5.00;1.27;;;;;;;;;;6275796;22;20383;-75
2023/04/13 08:53:30;;;;;;;5.65;1.08;;;;;;;;;;6275700;22;20429;-75
2023/04/13 08:55:59;;;;;;;5.72;1.58;;;;;;;;;;6274841;22;19999;-75
2023/04/13 08:58:27;;;;;;;5.07;1.30;;;;;;;;;;6277200;22;20022;-75
2023/04/13 09:00:53;;;;;;;6.00;1.60;;;;;;;;;;6278605;22;20466;-75
2023/04/13 09:03:23;;;;;;;5.50;1.27;;;;;;;;;;6277332;22;20004;-75
2023/04/13 09:06:03;;;;;;;7.63;1.27;;;;;;;;;;6277051;22;20087;-75
2023/04/13 09:08:34;;;;;;;8.98;1.60;;;;;;;;;;6276015;22;20007;-75
2023/04/13 09:11:00;;;;;;;9.68;1.75;;;;;;;;;;6278692;22;20307;-76
2023/04/13 09:13:25;;;;;;;5.07;1.08;;;;;;;;;;6276640;22;20011;-76
2023/04/13 09:15:51;;;;;;;4.65;1.02;;;;;;;;;;6277149;22;20003;-75
2023/04/13 09:18:16;;;;;;;7.50;1.52;;;;;;;;;;6276970;22;20006;-75
2023/04/13 09:20:42;;;;;;;8.15;1.60;;;;;;;;;;6277249;22;20038;-75
2023/04/13 09:23:14;;;;;;;6.78;1.45;;;;;;;;;;6278410;22;20010;-76
2023/04/13 09:25:40;;;;;;;6.32;1.50;;;;;;;;;;6277490;22;20000;-76
2023/04/13 09:28:07;;;;;;;5.90;1.17;;;;;;;;;;6276707;22;20007;-75
2023/04/13 09:30:33;;;;;;;6.40;1.75;;;;;;;;;;6277718;22;20004;-75
2023/04/13 09:33:09;;;;;;;6.13;1.70;;;;;;;;;;6276236;22;19999;-76
2023/04/13 09:35:35;;;;;;;6.10;1.27;;;;;;;;;;6275763;22;20004;-76
2023/04/13 09:38:01;;;;;;;8.18;1.40;;;;;;;;;;6275338;22;20007;-74
2023/04/13 09:40:27;;;;;;;6.50;1.10;;;;;;;;;;6278659;22;20058;-76
2023/04/13 09:42:55;;;;;;;8.88;1.92;;;;;;;;;;6279011;22;20000;-74
2023/04/13 09:45:20;;;;;;;5.57;1.23;;;;;;;;;;6278237;22;20010;-75
2023/04/13 09:47:46;;;;;;;5.72;1.08;;;;;;;;;;6277276;22;20319;-76
2023/04/13 09:50:23;;;;;;;5.50;1.25;;;;;;;;;;6275115;22;20006;-75
2023/04/13 09:53:05;;;;;;;5.60;1.20;;;;;;;;;;6274478;22;20031;-75
2023/04/13 09:55:32;;;;;;;7.53;1.67;;;;;;;;;;6276176;22;20330;-75
2023/04/13 09:58:13;;;;;;;7.35;1.23;;;;;;;;;;6278348;22;20057;-75
2023/04/13 10:00:41;;;;;;;5.57;1.25;;;;;;;;;;6274214;22;20023;-76
2023/04/13 10:03:12;;;;;;;6.55;1.05;;;;;;;;;;6276552;22;20007;-76
2023/04/13 10:05:38;;;;;;;4.57;1.10;;;;;;;;;;6276489;22;20011;-75
2023/04/13 10:08:05;;;;;;;6.53;1.10;;;;;;;;;;6276754;22;19995;-75
2023/04/13 10:10:31;;;;;;;3.72;0.98;;;;;;;;;;6276188;22;20051;-75
2023/04/13 10:13:00;;;;;;;7.47;1.42;;;;;;;;;;6276824;22;20532;-74
2023/04/13 10:15:55;;;;;;;4.10;0.90;;;;;;;;;;6277197;22;20015;-75
2023/04/13 10:18:33;;;;;;;4.30;1.00;;;;;;;;;;6277769;22;20031;-75
2023/04/13 10:20:59;;;;;;;7.20;1.40;;;;;;;;;;6277817;22;20106;-74
2023/04/13 10:23:27;;;;;;;3.60;0.98;;;;;;;;;;6278856;22;20075;-75
2023/04/13 10:25:54;;;;;;;4.15;0.88;;;;;;;;;;6277277;22;20083;-74
2023/04/13 10:28:20;;;;;;;5.55;1.17;;;;;;;;;;6276190;22;20000;-75
2023/04/13 10:30:50;;;;;;;6.32;1.48;;;;;;;;;;6252509;22;20038;-76
2023/04/13 10:33:16;;;;;;;7.45;1.40;;;;;;;;;;6277942;22;20000;-75
2023/04/13 10:35:41;;;;;;;4.00;1.17;;;;;;;;;;6278558;22;20430;-75
2023/04/13 10:38:10;;;;;;;9.25;1.00;;;;;;;;;;6278933;22;20015;-75
2023/04/13 10:40:46;;;;;;;5.85;1.23;;;;;;;;;;6279301;22;20053;-75
2023/04/13 10:43:11;;;;;;;4.93;1.13;;;;;;;;;;6277677;22;20425;-75
2023/04/13 10:45:37;;;;;;;7.45;1.13;;;;;;;;;;6279544;22;20038;-75
2023/04/13 10:48:03;;;;;;;3.60;1.25;;;;;;;;;;6272851;22;20006;-75
2023/04/13 10:50:28;;;;;;;6.63;1.23;;;;;;;;;;6277349;22;20056;-75
2023/04/13 10:53:05;;;;;;;8.10;1.95;;;;;;;;;;6278015;22;20010;-75
2023/04/13 10:55:32;;;;;;;7.63;1.13;;;;;;;;;;6275628;22;20003;-75
2023/04/13 10:57:59;;;;;;;5.70;1.25;;;;;;;;;;6278083;22;20081;-75
2023/04/13 11:00:27;;;;;;;6.28;1.23;;;;;;;;;;6277180;22;19999;-76
2023/04/13 11:02:55;;;;;;;9.95;1.75;;;;;;;;;;6274685;22;20011;-75
2023/04/13 11:05:21;;;;;;;7.10;1.20;;;;;;;;;;6271264;22;20641;-75
2023/04/13 11:07:48;;;;;;;4.70;1.20;;;;;;;;;;6275375;22;20050;-76
2023/04/13 11:10:14;;;;;;;5.20;1.50;;;;;;;;;;6274341;22;20312;-75
2023/04/13 11:12:51;;;;;;;3.05;1.08;;;;;;;;;;6276460;22;20495;-75
2023/04/13 11:15:21;;;;;;;5.13;1.20;;;;;;;;;;6277058;22;20164;-75
2023/04/13 11:17:52;;;;;;;6.63;1.50;;;;;;;;;;6277259;22;20008;-76
2023/04/13 11:20:17;;;;;;;3.65;1.00;;;;;;;;;;6276342;22;20030;-76
2023/04/13 11:22:43;;;;;;;6.18;1.27;;;;;;;;;;6275171;22;20007;-75
2023/04/13 11:25:09;;;;;;;8.00;1.27;;;;;;;;;;6274806;22;20007;-77
2023/04/13 11:27:36;;;;;;;5.80;1.30;;;;;;;;;;6272411;22;20004;-75
2023/04/13 11:30:05;;;;;;;7.70;1.13;;;;;;;;;;6275700;22;20049;-75
2023/04/13 11:32:32;;;;;;;6.03;1.40;;;;;;;;;;6274744;22;20016;-75
2023/04/13 11:35:14;;;;;;;7.90;1.67;;;;;;;;;;6273780;22;20019;-75
2023/04/13 11:37:51;;;;;;;4.82;1.13;;;;;;;;;;6274736;22;20065;-77
2023/04/13 11:40:28;;;;;;;4.25;1.20;;;;;;;;;;6273658;22;20015;-76
2023/04/13 11:42:55;;;;;;;5.70;1.65;;;;;;;;;;6275587;22;20000;-75
2023/04/13 11:45:24;;;;;;;6.10;1.50;;;;;;;;;;6274879;22;20440;-77
2023/04/13 11:47:50;;;;;;;5.60;1.02;;;;;;;;;;6275867;22;20053;-75
2023/04/13 11:50:17;;;;;;;5.88;1.13;;;;;;;;;;6276711;22;20010;-76
2023/04/13 11:52:45;;;;;;;6.13;1.10;;;;;;;;;;6276608;22;20065;-74
2023/04/13 11:55:12;;;;;;;8.35;1.13;;;;;;;;;;6276513;22;20425;-76
2023/04/13 11:57:39;;;;;;;5.93;1.85;;;;;;;;;;6277636;22;20067;-76
2023/04/13 12:00:17;;;;;;;4.35;1.20;;;;;;;;;;6251192;22;20098;-76
2023/04/13 12:02:44;;;;;;;4.10;1.08;;;;;;;;;;6278096;22;20000;-75
2023/04/13 12:05:23;;;;;;;6.95;0.95;;;;;;;;;;6275703;22;20007;-75
2023/04/13 12:07:52;;;;;;;8.88;1.63;;;;;;;;;;6274183;22;20000;-75
2023/04/13 12:10:23;;;;;;;4.70;1.13;;;;;;;;;;6276050;22;20616;-75
2023/04/13 12:12:59;;;;;;;5.57;1.10;;;;;;;;;;6277692;22;20010;-75
2023/04/13 12:15:28;;;;;;;7.18;1.20;;;;;;;;;;6276658;22;20031;-75
2023/04/13 12:17:54;;;;;;;5.60;0.95;;;;;;;;;;6279447;22;20008;-75
2023/04/13 12:20:20;;;;;;;5.28;1.00;;;;;;;;;;6277438;22;20010;-75
2023/04/13 12:22:45;;;;;;;4.22;1.00;;;;;;;;;;6278424;22;20055;-77
2023/04/13 12:25:17;;;;;;;4.85;1.02;;;;;;;;;;6273620;22;20015;-75
2023/04/13 12:27:42;;;;;;;5.70;1.33;;;;;;;;;;6277104;22;20019;-75
2023/04/13 12:30:12;;;;;;;4.07;1.10;;;;;;;;;;6277277;22;20385;-75
2023/04/13 12:32:49;;;;;;;4.20;1.10;;;;;;;;;;6276165;22;20050;-75
2023/04/13 12:35:15;;;;;;;4.55;1.15;;;;;;;;;;6272943;22;20004;-77
2023/04/13 12:37:43;;;;;;;6.57;1.02;;;;;;;;;;6249874;22;20019;-74
2023/04/13 12:40:11;;;;;;;3.45;0.98;;;;;;;;;;6276605;22;20004;-75
2023/04/13 12:42:42;;;;;;;3.38;0.80;;;;;;;;;;6277857;22;20007;-75
2023/04/13 12:45:08;;;;;;;10.75;1.50;;;;;;;;;;6277177;22;20007;-76
2023/04/13 12:47:34;;;;;;;7.72;1.40;;;;;;;;;;6279448;22;20011;-75
2023/04/13 12:50:01;;;;;;;3.95;1.10;;;;;;;;;;6275660;22;20008;-75
2023/04/13 12:52:28;;;;;;;5.03;1.10;;;;;;;;;;6277366;22;20538;-75
2023/04/13 12:54:54;;;;;;;6.68;1.20;;;;;;;;;;6279861;22;20003;-76
2023/04/13 12:57:20;;;;;;;4.82;0.90;;;;;;;;;;6278821;22;20000;-74
2023/04/13 12:59:45;;;;;;;3.55;0.80;;;;;;;;;;6251813;22;20315;-76
2023/04/13 13:02:11;;;;;;;3.70;0.70;;;;;;;;;;6276975;22;20008;-75
2023/04/13 13:04:36;;;;;;;4.07;0.75;;;;;;;;;;6278991;22;20010;-76
2023/04/13 13:07:01;;;;;;;6.70;0.80;;;;;;;;;;6273459;22;20004;-74
2023/04/13 13:09:27;;;;;;;2.85;0.70;;;;;;;;;;6278240;22;20011;-75
2023/04/13 13:11:52;;;;;;;4.78;0.70;;;;;;;;;;6280192;22;19999;-75
2023/04/13 13:14:21;;;;;;;6.07;0.70;;;;;;;;;;6277381;22;20011;-75
2023/04/13 13:16:48;;;;;;;4.88;1.00;;;;;;;;;;6276611;22;20026;-76
2023/04/13 13:19:14;;;;;;;3.83;0.85;;;;;;;;;;6272401;22;20017;-75
2023/04/13 13:21:39;;;;;;;4.40;0.60;;;;;;;;;;6278674;22;20031;-76
2023/04/13 13:24:05;;;;;;;3.00;0.82;;;;;;;;;;6275719;22;20014;-79
2023/04/13 13:26:32;;;;;;;3.42;0.70;;;;;;;;;;6274988;22;20004;-79
2023/04/13 13:28:57;;;;;;;3.88;0.90;;;;;;;;;;6272223;22;20014;-78
2023/04/13 13:31:23;;;;;;;3.67;0.80;;;;;;;;;;6273407;22;20337;-79
2023/04/13 13:33:48;;;;;;;8.38;1.38;;;;;;;;;;6273792;22;20022;-78
2023/04/13 13:36:14;;;;;;;7.03;0.90;;;;;;;;;;6270729;22;20035;-78
2023/04/13 13:38:40;;;;;;;5.47;0.93;;;;;;;;;;6271608;22;20079;-78
2023/04/13 13:41:05;;;;;;;4.03;0.77;;;;;;;;;;6270076;22;20012;-77
2023/04/13 13:43:31;;;;;;;5.78;1.02;;;;;;;;;;6271553;22;20007;-78
2023/04/13 13:45:57;;;;;;;3.88;0.90;;;;;;;;;;6271888;22;20026;-78
2023/04/13 13:48:22;;;;;;;2.13;0.40;;;;;;;;;;6272988;22;20008;-78
2023/04/13 13:50:48;;;;;;;7.13;0.73;;;;;;;;;;6275654;22;20007;-79
2023/04/13 13:53:13;;;;;;;5.22;0.90;;;;;;;;;;6273035;22;20007;-78
2023/04/13 13:55:39;;;;;;;3.85;0.73;;;;;;;;;;6273298;22;20008;-78
2023/04/13 13:58:05;;;;;;;3.33;0.80;;;;;;;;;;6272085;22;20007;-78
2023/04/13 14:00:30;;;;;;;1.92;0.70;;;;;;;;;;6275948;22;20437;-78
2023/04/13 14:02:56;;;;;;;5.38;0.80;;;;;;;;;;6275324;22;20000;-78
2023/04/13 14:05:22;;;;;;;4.57;0.73;;;;;;;;;;6272837;22;20004;-77
2023/04/13 14:07:47;;;;;;;4.75;0.70;;;;;;;;;;6271682;22;20000;-78
2023/04/13 14:10:13;;;;;;;2.15;0.63;;;;;;;;;;6273247;22;20007;-78
2023/04/13 14:12:42;;;;;;;5.78;0.80;;;;;;;;;;6271460;22;20083;-78
2023/04/13 14:15:09;;;;;;;3.42;0.63;;;;;;;;;;6271130;22;20035;-78
2023/04/13 14:17:35;;;;;;;4.10;0.80;;;;;;;;;;6270582;22;20004;-78
2023/04/13 14:20:07;;;;;;;4.35;0.70;;;;;;;;;;6273875;22;20003;-78
2023/04/13 14:22:32;;;;;;;4.35;0.77;;;;;;;;;;6272025;22;20028;-79
2023/04/13 14:24:58;;;;;;;3.72;0.60;;;;;;;;;;6273992;22;20363;-78
2023/04/13 14:27:23;;;;;;;3.53;1.02;;;;;;;;;;6274219;22;20026;-78
2023/04/13 14:29:48;;;;;;;2.95;0.70;;;;;;;;;;6273092;22;19999;-77
2023/04/13 14:32:14;;;;;;;2.63;0.77;;;;;;;;;;6273400;22;20367;-78
2023/04/13 14:34:40;;;;;;;4.43;0.82;;;;;;;;;;6272404;22;20094;-78
2023/04/13 14:37:05;;;;;;;3.97;0.82;;;;;;;;;;6271969;22;20007;-78
2023/04/13 14:39:31;;;;;;;5.05;0.77;;;;;;;;;;6271532;22;20008;-78
2023/04/13 14:41:56;;;;;;;3.80;0.82;;;;;;;;;;6272855;22;20082;-79